Aérodrome :
LOGIN :

S'inscrire | Disclaimer

   EN    FR    IT 

 










Légende :    VFR   VFR Marginal   IFR   IFR Intensif   IFR Très Intensif
Visi : 
Plafond : 
>= 8 km
>= 3000ft
5 à 8 km
1000 à 3000 ft
1500m à 5 km
500 à 1000 ft
800 à 1500m
200 à 500 ft
< 800m
< 200 ft
Symboles :   Orages  Brouillard  Fortes neiges  Fortes précipitations  Vent > 20 kt
SIGMETs :   Divers  Orages  Givrage  Turbulence  Onde Orograph.  Cendres Volcan.






- Altitude de l'aérodrome : 39 ft


ETNH - Hohn AB

DERNIER METAR :
  • 201620Z 28003KT 2000 -RA BR BKN001 BKN020 03/03 Q1017 RED

METARs EXPIRÉS :
  • 201601Z 28004KT 2000 -RA BR OVC001 03/03 Q1017 RED FCST CANCEL
  • 201540Z 30003KT 1500 R26/6000N -DZ BR OVC001 03/03 Q1017 RED RED TEMPO YLO
  • 201520Z 29002KT 2000 -DZRA BR OVC001 03/03 Q1017 RED RED TEMPO YLO
  • 201420Z VRB02KT 2300 -RA BR OVC001 03/03 Q1018 RED RED BECMG YLO
  • 201349Z 27002KT 1800 R26/4600U -RA BR OVC001 03/03 Q1018 RED RED BECMG YLO

TAF AMD TAF ETNH
Valide du 20 à 14h jusqu'au 21 à 00h UTC


201425Z 2014/2024 VRB02KT 1500 BR BKN001
TEMPO 2014/2022 VRB03KT 3000 -RADZ BKN003
TEMPO 2022/2106 VRB01KT 0500 FG VV001 BY ETGL



MET'MAP, la Météo Aéronautique d'un coup d'oeil ! - Copyright ORBIFLY Décembre 2007 - Disclaimer

ORBIFLY MET'MAP TEAM :

Programmation & Développement : Alexandra Zaïnal
Conception & Développement : Baudouin d'Aumeries
Co-Programmation & Développement : Marc-Olivier Méhu
Soutien technique & logistique : Manuel Goepfert

Contact : metmap@orbifly.com




SOURCES & CREDITS :

   NOAA